Time;durP1;ratioP1;P1;durP2;ratioP2;P2;SDS_P1;SDS_P2;PMS_P1;PMS_P2;Temp;Humidity;BMP_temperature;BMP_pressure;BME280_temperature;BME280_humidity;BME280_pressure;Samples;Min_cycle;Max_cycle;Signal;HPM_P1;HPM_P2
2023/01/12 00:02:21;;;;;;;3.53;1.40;;;6.90;95.50;;;10.05;52.98;97934.69;5033546;28;20420;-46
2023/01/12 00:04:49;;;;;;;3.00;1.43;;;7.00;96.70;;;10.10;53.07;97940.41;5033521;28;20489;-47
2023/01/12 00:07:17;;;;;;;5.80;2.43;;;7.00;95.90;;;10.13;52.86;97932.09;5033632;28;20049;-44
2023/01/12 00:09:44;;;;;;;5.90;2.20;;;7.00;96.40;;;10.18;52.73;97940.47;5033467;28;20046;-45
2023/01/12 00:12:12;;;;;;;6.03;2.50;;;7.00;96.00;;;10.20;52.84;97943.81;5033544;28;20075;-45
2023/01/12 00:14:40;;;;;;;4.97;2.57;;;7.10;95.50;;;10.22;52.83;97939.19;5025639;28;20495;-46
2023/01/12 00:17:07;;;;;;;2.83;1.47;;;7.10;95.80;;;10.25;52.71;97941.56;5033358;28;20037;-46
2023/01/12 00:19:37;;;;;;;2.33;1.70;;;7.20;95.80;;;10.30;52.76;97932.28;5032845;28;20049;-43
2023/01/12 00:22:10;;;;;;;5.90;1.60;;;7.20;95.80;;;10.34;52.78;97945.16;5031897;28;20041;-44
2023/01/12 00:24:48;;;;;;;4.73;2.00;;;7.20;95.20;;;10.37;52.62;97936.88;5032419;28;20041;-45
2023/01/12 00:27:19;;;;;;;4.27;1.70;;;7.30;94.40;;;10.39;52.83;97931.38;5048550;28;20052;-45
2023/01/12 00:29:48;;;;;;;3.50;1.53;;;7.20;95.40;;;10.39;52.39;97940.22;5016071;28;20418;-46
2023/01/12 00:32:19;;;;;;;6.70;1.60;;;7.20;94.80;;;10.39;52.44;97934.03;5031689;28;20428;-46
2023/01/12 00:34:46;;;;;;;5.63;1.77;;;7.20;94.90;;;10.38;52.42;97927.88;5033094;28;20492;-49
2023/01/12 00:37:14;;;;;;;5.37;2.23;;;7.20;95.30;;;10.37;52.69;97928.88;5032897;28;20501;-49
2023/01/12 00:39:41;;;;;;;6.23;1.33;;;7.30;94.00;;;10.34;52.55;97920.38;5031450;28;20045;-49
2023/01/12 00:45:22;;;;;;;6.83;1.77;;;7.30;93.80;;;10.43;52.64;97920.28;5032925;28;20057;-47
2023/01/12 00:47:50;;;;;;;4.90;2.00;;;7.40;94.30;;;10.46;52.00;97918.31;5024739;28;20037;-45
2023/01/12 00:50:17;;;;;;;2.80;1.40;;;7.40;93.80;;;10.39;51.95;97920.72;5032615;28;20089;-48
2023/01/12 00:52:46;;;;;;;4.80;1.30;;;7.30;93.10;;;10.37;52.23;97918.25;5032821;28;20038;-46
2023/01/12 00:55:13;;;;;;;8.07;2.30;;;7.30;93.30;;;10.35;52.34;97914.03;5032583;28;20053;-46
2023/01/12 00:57:41;;;;;;;3.87;1.47;;;7.30;93.60;;;10.38;52.36;97914.56;5032372;28;20049;-49
2023/01/12 01:00:09;;;;;;;5.90;1.60;;;7.30;93.70;;;10.38;52.29;97905.75;5032261;28;20056;-45
2023/01/12 01:02:37;;;;;;;4.43;1.90;;;7.30;93.90;;;10.37;52.28;97902.28;5032174;28;20358;-46
2023/01/12 01:05:05;;;;;;;4.93;2.30;;;7.20;93.30;;;10.31;52.32;97900.19;5032665;28;20453;-48
2023/01/12 01:07:33;;;;;;;6.03;2.30;;;7.20;93.70;;;10.31;52.16;97902.84;5032443;28;20373;-44
2023/01/12 01:10:01;;;;;;;7.57;1.70;;;7.10;93.70;;;10.30;52.33;97901.19;5032786;28;20420;-48
2023/01/12 01:12:28;;;;;;;6.13;1.60;;;7.10;94.40;;;10.32;52.17;97906.38;5031039;28;20060;-46
2023/01/12 01:14:56;;;;;;;7.13;1.40;;;7.20;94.20;;;10.38;52.36;97908.41;5032036;28;20045;-43
2023/01/12 01:17:23;;;;;;;3.53;1.83;;;7.30;93.30;;;10.39;52.35;97908.28;5031692;28;20060;-47
2023/01/12 01:19:51;;;;;;;6.73;4.00;;;7.30;94.00;;;10.47;52.43;97907.50;5032131;28;20420;-45
2023/01/12 01:22:18;;;;;;;3.93;1.63;;;7.40;93.50;;;10.48;51.98;97898.50;5031772;28;20041;-47
2023/01/12 01:24:49;;;;;;;2.53;1.20;;;7.40;92.80;;;10.54;52.36;97902.38;5031270;28;20037;-48
2023/01/12 01:27:16;;;;;;;4.27;1.30;;;7.40;93.00;;;10.58;52.19;97896.59;5031826;28;20041;-45
2023/01/12 01:29:44;;;;;;;3.60;1.43;;;7.50;92.50;;;10.57;51.97;97910.06;5031596;28;20037;-44
2023/01/12 01:32:11;;;;;;;6.87;1.57;;;7.50;92.40;;;10.64;51.81;97913.78;5031984;28;20053;-46
2023/01/12 01:34:39;;;;;;;3.03;1.27;;;7.50;92.60;;;10.66;52.02;97914.44;5024009;28;20037;-46
2023/01/12 01:37:07;;;;;;;5.00;1.50;;;7.60;92.90;;;10.68;51.91;97914.31;5031630;28;20167;-44
2023/01/12 01:39:34;;;;;;;3.00;1.70;;;7.60;93.00;;;10.73;51.69;97923.50;5031436;28;20041;-43
2023/01/12 01:42:02;;;;;;;5.70;1.83;;;7.60;92.90;;;10.78;51.71;97926.53;5031831;28;20050;-46
2023/01/12 01:44:29;;;;;;;5.73;1.60;;;7.70;92.70;;;10.76;51.82;97925.00;5030067;28;20056;-45
2023/01/12 01:47:07;;;;;;;3.27;1.67;;;7.70;92.30;;;10.81;51.86;97928.88;5032146;28;20048;-44
2023/01/12 01:49:43;;;;;;;4.17;1.30;;;7.70;92.90;;;10.87;51.58;97926.59;5031432;28;20412;-45
2023/01/12 01:52:24;;;;;;;5.03;1.30;;;7.60;92.20;;;10.90;51.73;97923.63;5031526;28;20135;-47
2023/01/12 01:55:12;;;;;;;6.57;2.90;;;7.70;92.50;;;10.90;51.70;97910.31;5025303;28;20052;-45
2023/01/12 01:58:05;;;;;;;6.17;2.23;;;7.70;91.70;;;10.89;51.80;97909.44;5030150;28;20045;-47
2023/01/12 02:00:34;;;;;;;5.80;2.33;;;7.70;91.10;;;10.89;51.61;97906.78;5031346;28;20049;-45
2023/01/12 02:03:20;;;;;;;3.57;1.50;;;7.70;92.20;;;10.88;51.55;97917.63;5030159;28;20136;-48
2023/01/12 02:05:49;;;;;;;3.53;1.60;;;7.70;91.50;;;10.89;51.56;97911.28;5030136;28;20408;-45
2023/01/12 02:08:30;;;;;;;3.40;1.47;;;7.70;91.30;;;10.84;51.52;97912.59;5029359;28;20045;-48
2023/01/12 02:11:00;;;;;;;2.73;1.60;;;7.80;91.50;;;10.85;51.26;97916.09;5030236;28;20041;-45
2023/01/12 02:16:26;;;;;;;2.70;1.40;;;7.70;92.50;;;10.82;51.76;97897.78;5030045;28;20048;-45
2023/01/12 02:19:21;;;;;;;4.50;1.90;;;7.70;90.90;;;10.78;51.67;97893.75;5029237;28;20042;-45
2023/01/12 02:21:58;;;;;;;6.50;1.80;;;7.70;91.40;;;10.83;51.64;97888.78;5023644;28;20416;-49
2023/01/12 02:24:50;;;;;;;5.93;2.00;;;7.70;92.10;;;10.82;51.75;97889.78;5029842;28;20046;-45
2023/01/12 02:27:51;;;;;;;4.23;1.47;;;7.70;91.80;;;10.76;51.45;97880.59;5031112;28;20068;-44
2023/01/12 02:31:01;;;;;;;4.30;1.70;;;7.70;90.80;;;10.81;51.46;97872.13;5029541;28;20534;-47
2023/01/12 02:33:47;;;;;;;5.20;1.40;;;7.70;92.00;;;10.88;51.70;97872.34;5031405;28;20484;-44
2023/01/12 02:36:29;;;;;;;5.57;1.90;;;7.70;91.70;;;10.77;51.42;97862.78;5031004;28;20064;-47
2023/01/12 02:39:28;;;;;;;6.03;1.40;;;7.70;91.80;;;10.83;51.68;97854.16;5030687;28;20056;-43
2023/01/12 02:45:32;;;;;;;3.67;1.60;;;7.70;91.10;;;10.78;51.64;97851.16;5024558;28;20041;-44
2023/01/12 02:48:20;;;;;;;5.87;1.80;;;7.70;91.00;;;10.81;51.52;97832.19;5025652;28;20045;-48
2023/01/12 02:51:12;;;;;;;6.10;1.80;;;7.70;91.30;;;10.73;51.17;97840.94;5023600;28;20045;-44
2023/01/12 02:53:50;;;;;;;4.90;1.83;;;7.60;91.00;;;10.70;51.68;97838.63;5029064;28;20060;-44
2023/01/12 02:56:42;;;;;;;2.27;1.57;;;7.60;91.20;;;10.75;51.20;97843.47;5030716;28;20053;-47
2023/01/12 02:59:26;;;;;;;3.60;1.30;;;7.60;91.20;;;10.73;51.57;97830.31;5029681;28;20493;-46
2023/01/12 03:02:00;;;;;;;6.75;1.90;;;7.60;91.20;;;10.73;51.62;97835.63;5024081;28;20052;-46
2023/01/12 03:04:30;;;;;;;7.28;2.15;;;7.60;91.00;;;10.76;51.47;97837.13;5029544;28;20052;-50
2023/01/12 03:06:57;;;;;;;7.47;2.17;;;7.60;91.20;;;10.77;51.57;97844.13;5029590;28;20045;-45
2023/01/12 03:09:37;;;;;;;4.90;1.40;;;7.60;91.10;;;10.78;51.48;97854.63;5030771;28;20048;-46
2023/01/12 03:12:13;;;;;;;3.93;1.73;;;7.60;91.40;;;10.77;51.23;97852.13;5030509;28;20062;-45
2023/01/12 03:14:46;;;;;;;3.70;1.40;;;7.60;91.20;;;10.83;51.01;97851.50;5021771;28;20441;-43
2023/01/12 03:17:29;;;;;;;3.57;1.13;;;7.70;91.20;;;10.80;51.74;97838.50;5029505;28;20504;-46
2023/01/12 03:20:29;;;;;;;6.22;1.70;;;7.60;91.00;;;10.81;51.49;97838.31;5033097;28;20041;-47
2023/01/12 03:23:10;;;;;;;4.50;1.50;;;7.60;91.20;;;10.84;51.21;97840.69;5032827;28;20053;-45
2023/01/12 03:25:42;;;;;;;10.00;1.87;;;7.60;91.60;;;10.83;51.33;97828.34;5033282;28;20041;-47
2023/01/12 03:28:16;;;;;;;4.43;2.80;;;7.60;91.20;;;10.85;51.38;97828.19;5034192;28;20053;-45
2023/01/12 03:30:55;;;;;;;4.30;1.35;;;7.70;91.50;;;10.87;51.28;97820.06;5025829;28;20037;-44
2023/01/12 03:33:24;;;;;;;4.07;1.50;;;7.60;90.80;;;10.88;51.22;97827.91;5033999;28;20116;-48
2023/01/12 03:36:28;;;;;;;5.10;2.27;;;7.70;91.60;;;10.87;51.37;97823.53;5034265;28;20072;-44
2023/01/12 03:39:13;;;;;;;5.23;1.60;;;7.70;90.70;;;10.87;51.37;97828.88;5036949;28;20088;-43
2023/01/12 03:42:06;;;;;;;3.63;1.43;;;7.70;91.10;;;10.89;51.59;97829.53;5024958;28;20496;-44
2023/01/12 03:45:08;;;;;;;4.13;1.40;;;7.70;90.40;;;10.92;51.64;97828.41;5032792;28;20057;-49
2023/01/12 03:47:39;;;;;;;6.73;2.57;;;7.80;90.50;;;10.95;51.30;97820.09;5033521;28;20416;-46
2023/01/12 03:50:15;;;;;;;6.43;1.67;;;7.80;90.20;;;10.95;51.45;97822.75;5033998;28;20050;-47
2023/01/12 03:52:44;;;;;;;2.93;1.70;;;7.80;90.60;;;10.99;51.18;97818.78;5025658;28;20037;-46
2023/01/12 03:55:18;;;;;;;5.10;1.50;;;7.80;89.30;;;10.93;51.36;97817.56;5032914;28;20508;-46
2023/01/12 03:57:48;;;;;;;3.25;1.42;;;7.70;90.70;;;10.99;51.18;97816.97;5025367;28;20505;-45
2023/01/12 04:00:19;;;;;;;4.07;1.50;;;7.80;90.70;;;11.02;51.12;97819.28;5016131;28;20084;-43
2023/01/12 04:02:46;;;;;;;4.37;1.43;;;7.90;90.30;;;11.07;50.99;97825.97;5033997;28;20048;-47
2023/01/12 04:05:15;;;;;;;6.27;1.57;;;7.90;90.60;;;11.08;51.47;97819.66;5033606;28;20060;-46
2023/01/12 04:07:42;;;;;;;4.90;1.90;;;7.90;90.10;;;11.10;51.20;97815.81;5032247;28;20511;-44
2023/01/12 04:10:10;;;;;;;5.93;2.67;;;8.00;89.60;;;11.09;50.87;97810.66;5033475;28;20056;-47
2023/01/12 04:12:38;;;;;;;5.67;1.60;;;7.90;89.70;;;11.11;51.18;97812.19;5033486;28;20038;-47
2023/01/12 04:15:06;;;;;;;4.50;1.50;;;7.90;89.90;;;11.12;50.74;97805.84;5033271;28;20049;-45
2023/01/12 04:17:33;;;;;;;3.13;1.37;;;7.90;89.80;;;11.11;50.89;97809.53;5032037;28;20068;-44
2023/01/12 04:20:01;;;;;;;6.30;1.77;;;7.90;89.80;;;11.12;50.83;97815.69;5033330;28;20509;-46
2023/01/12 04:22:44;;;;;;;3.87;1.93;;;7.90;89.60;;;11.13;50.76;97812.84;5033355;28;20049;-46
2023/01/12 04:25:18;;;;;;;7.30;3.37;;;8.00;89.40;;;11.15;50.76;97808.19;5032433;28;20060;-50
2023/01/12 04:28:03;;;;;;;13.63;3.73;;;8.00;89.00;;;11.15;50.89;97807.38;5024852;28;20049;-44
2023/01/12 04:30:32;;;;;;;5.97;2.78;;;8.00;88.70;;;11.16;50.87;97801.03;5031807;28;20041;-45
2023/01/12 04:33:08;;;;;;;5.07;1.80;;;7.90;89.40;;;11.10;50.69;97794.50;5032122;28;20045;-45
2023/01/12 04:35:35;;;;;;;4.90;2.10;;;7.90;88.40;;;11.10;51.00;97793.69;5033010;28;20042;-45
2023/01/12 04:38:07;;;;;;;4.40;1.73;;;7.90;88.60;;;11.07;50.64;97789.53;5032832;28;20053;-44
2023/01/12 04:40:35;;;;;;;5.17;1.70;;;7.90;88.30;;;11.07;50.98;97781.53;5032859;28;20515;-44
2023/01/12 04:43:07;;;;;;;8.50;2.37;;;7.90;88.40;;;11.03;50.98;97775.69;5031795;28;20053;-44
2023/01/12 04:45:40;;;;;;;6.10;2.00;;;7.90;89.00;;;11.09;50.68;97776.88;5033099;28;20045;-49
2023/01/12 04:48:11;;;;;;;4.50;1.50;;;7.90;88.60;;;11.03;50.61;97764.16;5031598;28;20049;-47
2023/01/12 04:50:40;;;;;;;4.93;1.43;;;8.00;87.90;;;10.95;50.59;97767.66;5032645;28;20041;-48
2023/01/12 04:53:09;;;;;;;10.23;3.87;;;7.90;88.10;;;11.03;50.66;97780.16;5033117;28;20045;-49
2023/01/12 04:55:40;;;;;;;6.50;2.57;;;8.00;87.70;;;11.03;50.71;97765.03;5031080;28;20052;-50
2023/01/12 04:58:08;;;;;;;6.77;1.30;;;8.00;87.00;;;11.04;50.29;97777.34;5031272;28;20056;-45
2023/01/12 05:00:35;;;;;;;5.57;1.53;;;8.00;86.50;;;11.08;50.23;97787.69;5032265;28;20053;-48
2023/01/12 05:03:03;;;;;;;6.90;1.80;;;8.00;86.30;;;11.10;50.27;97775.88;5032756;28;20060;-47
2023/01/12 05:05:32;;;;;;;3.80;1.50;;;8.10;86.60;;;11.12;50.13;97781.88;5032590;28;20117;-45
2023/01/12 05:10:50;;;;;;;5.00;1.60;;;8.10;86.20;;;11.14;50.41;97779.03;5025729;28;20042;-43
2023/01/12 05:13:18;;;;;;;5.87;1.70;;;8.10;85.20;;;11.10;49.97;97765.22;5032303;28;20050;-47
2023/01/12 05:15:46;;;;;;;4.17;1.77;;;8.10;85.50;;;11.11;50.09;97771.38;5032461;28;20045;-43
2023/01/12 05:18:14;;;;;;;6.97;1.93;;;8.10;85.40;;;11.08;50.09;97767.19;5031921;28;20061;-43
2023/01/12 05:20:42;;;;;;;6.57;1.90;;;8.10;85.00;;;11.01;50.03;97772.34;5029517;28;20039;-44
2023/01/12 05:23:09;;;;;;;4.10;1.63;;;8.10;84.70;;;11.12;49.67;97765.88;5032201;28;20056;-46
2023/01/12 05:25:37;;;;;;;3.40;1.30;;;8.10;85.00;;;11.11;50.05;97769.56;5031858;28;20038;-46
2023/01/12 05:28:04;;;;;;;5.33;2.13;;;8.10;85.00;;;11.11;50.24;97761.56;5031769;28;20042;-47
2023/01/12 05:30:32;;;;;;;6.60;2.47;;;8.10;85.00;;;11.19;49.80;97760.75;5030973;28;20045;-48
2023/01/12 05:32:59;;;;;;;4.47;2.07;;;8.20;85.30;;;11.20;50.11;97763.22;5032307;28;20173;-47
2023/01/12 05:35:27;;;;;;;9.63;2.47;;;8.10;84.60;;;11.22;49.91;97760.41;5032045;28;20052;-45
2023/01/12 05:37:55;;;;;;;3.43;1.50;;;8.10;84.80;;;11.20;49.81;97760.56;5031966;28;20511;-43
2023/01/12 05:40:23;;;;;;;3.87;1.93;;;8.20;84.60;;;11.17;49.93;97755.56;5030149;28;20042;-50
2023/01/12 05:45:37;;;;;;;5.87;2.53;;;8.10;85.10;;;11.26;50.08;97753.75;5031977;28;20049;-47
2023/01/12 05:48:05;;;;;;;6.10;2.43;;;8.20;85.10;;;11.22;49.83;97747.94;5031679;28;20041;-47
2023/01/12 05:50:33;;;;;;;6.37;2.03;;;8.10;85.00;;;11.26;49.59;97752.94;5031398;28;20041;-45
2023/01/12 05:53:09;;;;;;;5.67;1.87;;;8.10;84.70;;;11.25;49.58;97744.09;5030669;28;20493;-44
2023/01/12 05:55:37;;;;;;;6.17;1.80;;;8.10;84.30;;;11.18;49.79;97738.56;5031881;28;20046;-47
2023/01/12 05:58:05;;;;;;;5.23;1.67;;;8.10;84.00;;;11.19;49.81;97742.09;5031302;28;20049;-46
2023/01/12 06:00:32;;;;;;;5.33;1.77;;;8.10;84.10;;;11.21;49.55;97746.25;5030169;28;20049;-47
2023/01/12 06:03:01;;;;;;;11.57;1.90;;;8.10;83.70;;;11.19;49.28;97740.25;5031656;28;20424;-44
2023/01/12 06:05:29;;;;;;;3.40;1.67;;;8.10;84.10;;;11.21;49.55;97732.94;5031067;28;20389;-49
2023/01/12 06:07:57;;;;;;;11.03;1.90;;;8.10;84.20;;;11.20;49.58;97727.75;5031241;28;20043;-44
2023/01/12 06:10:25;;;;;;;12.47;2.20;;;8.10;83.50;;;11.16;49.38;97721.91;5029793;28;20076;-46
2023/01/12 06:15:39;;;;;;;7.67;1.67;;;8.10;84.10;;;11.09;49.69;97712.94;5031177;28;20072;-45
2023/01/12 06:18:07;;;;;;;5.67;1.90;;;8.00;84.10;;;11.08;49.57;97715.75;5030957;28;20056;-46
2023/01/12 06:20:34;;;;;;;5.00;1.90;;;8.00;83.70;;;11.07;49.78;97722.91;5031053;28;20053;-48
2023/01/12 06:23:06;;;;;;;5.17;1.87;;;8.00;83.90;;;11.07;49.52;97706.06;5031292;28;20068;-46
2023/01/12 06:25:33;;;;;;;5.40;1.40;;;8.00;83.80;;;10.99;50.22;97706.88;5029230;28;20421;-48
2023/01/12 06:28:03;;;;;;;3.77;1.30;;;8.00;84.00;;;10.99;49.82;97698.91;5030767;28;20042;-44
2023/01/12 06:30:31;;;;;;;3.43;1.57;;;8.00;84.10;;;10.97;50.09;97704.41;5029846;28;20393;-46
2023/01/12 06:33:01;;;;;;;3.93;1.50;;;8.00;83.90;;;10.96;50.13;97709.91;5031101;28;20041;-44
2023/01/12 06:35:29;;;;;;;5.23;2.20;;;8.00;83.90;;;10.93;49.97;97695.03;5030885;28;20041;-44
2023/01/12 06:37:57;;;;;;;5.33;1.57;;;8.00;84.40;;;10.92;50.02;97693.41;5030702;28;20041;-44
2023/01/12 06:40:24;;;;;;;6.63;1.50;;;8.00;84.60;;;10.98;50.16;97692.75;5030748;28;20052;-44
2023/01/12 06:42:52;;;;;;;3.83;1.77;;;8.00;84.80;;;11.06;50.33;97697.25;5030752;28;20434;-47
2023/01/12 06:45:19;;;;;;;8.57;1.43;;;8.10;84.50;;;11.03;50.21;97700.22;5029493;28;20049;-48
2023/01/12 06:47:49;;;;;;;4.80;2.77;;;8.00;84.30;;;11.03;50.29;97695.75;5030744;28;20038;-45
2023/01/12 06:50:17;;;;;;;3.97;1.53;;;8.10;84.70;;;11.09;50.56;97696.94;5030912;28;20038;-45
2023/01/12 06:52:44;;;;;;;7.50;1.70;;;8.10;84.90;;;11.10;50.14;97695.94;5033182;28;20503;-45
2023/01/12 06:55:12;;;;;;;3.17;1.27;;;8.10;84.80;;;11.15;50.34;97693.63;5034997;28;20058;-45
2023/01/12 06:57:39;;;;;;;4.53;1.67;;;8.10;85.20;;;11.22;50.14;97694.66;5033259;28;20045;-48
2023/01/12 07:00:08;;;;;;;3.63;1.33;;;8.20;85.00;;;11.18;50.07;97709.25;5033848;28;20163;-44
2023/01/12 07:02:36;;;;;;;4.77;1.67;;;8.10;84.70;;;11.14;50.20;97705.25;5033497;28;20054;-44
2023/01/12 07:05:04;;;;;;;5.77;1.70;;;8.10;85.20;;;11.17;50.16;97696.94;5035167;28;20045;-47
2023/01/12 07:07:32;;;;;;;7.07;1.50;;;8.20;86.10;;;11.23;50.41;97708.78;5033632;28;20056;-43
2023/01/12 07:09:59;;;;;;;5.17;1.60;;;8.20;85.50;;;11.22;50.11;97688.47;5035378;28;20049;-45
2023/01/12 07:12:27;;;;;;;4.47;2.00;;;8.20;85.70;;;11.23;50.22;97693.63;5034679;28;20041;-45
2023/01/12 07:14:57;;;;;;;10.80;1.70;;;8.10;85.50;;;11.25;50.40;97701.47;5034881;28;20045;-45
2023/01/12 07:17:25;;;;;;;4.87;1.40;;;8.20;85.90;;;11.30;50.28;97696.50;5034337;28;20053;-48
2023/01/12 07:19:52;;;;;;;8.63;2.27;;;8.10;85.60;;;11.21;50.29;97714.28;5033625;28;20038;-46
2023/01/12 07:22:20;;;;;;;3.60;1.20;;;8.10;86.00;;;11.17;50.27;97712.94;5033510;28;20052;-45
2023/01/12 07:24:47;;;;;;;3.87;1.10;;;8.10;86.30;;;11.20;50.28;97709.94;5032745;28;20068;-46
2023/01/12 07:27:15;;;;;;;5.03;1.50;;;8.10;86.20;;;11.28;50.31;97721.63;5034414;28;20505;-43
2023/01/12 07:29:42;;;;;;;4.40;1.33;;;8.20;86.10;;;11.27;50.55;97704.81;5034850;28;20049;-45
2023/01/12 07:32:10;;;;;;;4.10;1.80;;;8.20;86.20;;;11.31;50.64;97710.63;5034676;28;20046;-47
2023/01/12 07:34:37;;;;;;;4.90;1.60;;;8.20;86.20;;;11.33;50.17;97706.81;5034641;28;20044;-45
2023/01/12 07:37:05;;;;;;;7.10;2.50;;;8.20;86.00;;;11.33;50.46;97701.47;5034307;28;20052;-45
2023/01/12 07:39:33;;;;;;;4.30;1.27;;;8.20;86.30;;;11.38;50.34;97704.50;5034221;28;20416;-46
2023/01/12 07:44:46;;;;;;;5.53;2.10;;;8.20;86.10;;;11.40;50.62;97701.66;5027335;28;20041;-44
2023/01/12 07:47:14;;;;;;;34.30;11.47;;;8.20;86.10;;;11.41;50.60;97704.13;5034312;28;20049;-44
2023/01/12 07:49:41;;;;;;;53.80;16.37;;;8.30;86.30;;;11.40;50.38;97691.81;5034180;28;20034;-50
2023/01/12 07:52:13;;;;;;;70.63;22.03;;;8.30;86.00;;;11.37;50.39;97686.81;5034294;28;20212;-45
2023/01/12 07:54:40;;;;;;;44.53;11.90;;;8.20;85.70;;;11.34;50.60;97694.31;5026017;28;20037;-47
2023/01/12 07:57:10;;;;;;;16.07;5.90;;;8.20;86.20;;;11.37;50.35;97692.16;5034417;28;20045;-47
2023/01/12 07:59:38;;;;;;;8.00;2.70;;;8.30;86.20;;;11.37;50.13;97691.31;5033704;28;20400;-44
2023/01/12 08:02:12;;;;;;;12.23;3.80;;;8.20;85.90;;;11.41;50.11;97696.16;5034042;28;20053;-43
2023/01/12 08:04:40;;;;;;;5.93;3.70;;;8.30;85.70;;;11.41;50.73;97701.47;5025391;28;20432;-45
2023/01/12 08:07:09;;;;;;;8.23;2.63;;;8.30;85.50;;;11.43;50.20;97698.66;5034309;28;20052;-43
2023/01/12 08:09:37;;;;;;;7.27;2.43;;;8.30;85.40;;;11.43;50.04;97690.66;5032533;28;20042;-44
2023/01/12 08:12:04;;;;;;;3.50;1.90;;;8.40;85.50;;;11.41;50.14;97692.66;5033701;28;20042;-45
2023/01/12 08:14:38;;;;;;;7.60;1.50;;;8.30;85.40;;;11.46;50.51;97693.00;5033639;28;20045;-47
2023/01/12 08:17:15;;;;;;;6.82;1.98;;;8.40;85.50;;;11.48;50.20;97699.00;5033776;28;20053;-46
2023/01/12 08:19:54;;;;;;;9.10;3.07;;;8.40;86.00;;;11.46;50.07;97694.81;5025232;28;20045;-44
2023/01/12 08:22:29;;;;;;;4.80;1.37;;;8.40;85.30;;;11.46;50.04;97697.47;5028188;28;20049;-43
2023/01/12 08:25:05;;;;;;;5.40;1.83;;;8.40;84.60;;;11.31;50.53;97695.47;5032082;28;20120;-45
2023/01/12 08:27:37;;;;;;;3.37;1.60;;;8.30;85.50;;;11.42;50.63;97697.81;5032052;28;20048;-43
2023/01/12 08:30:07;;;;;;;3.33;1.47;;;8.40;86.60;;;11.47;50.54;97697.31;5033182;28;20547;-43
2023/01/12 08:32:36;;;;;;;6.93;1.77;;;8.40;85.40;;;11.51;50.35;97695.97;5033194;28;20424;-48
2023/01/12 08:35:05;;;;;;;2.43;1.63;;;8.50;85.30;;;11.54;50.10;97700.16;5033140;28;20061;-42
2023/01/12 08:37:34;;;;;;;4.10;1.30;;;8.50;84.70;;;11.56;50.57;97695.50;5031921;28;20064;-46
2023/01/12 08:40:04;;;;;;;6.07;1.53;;;8.60;84.30;;;11.53;50.38;97712.66;5031824;28;20496;-44
2023/01/12 08:42:31;;;;;;;4.60;1.90;;;8.50;84.60;;;11.51;50.59;97690.66;5031784;28;20402;-48
2023/01/12 08:44:59;;;;;;;5.87;1.47;;;8.50;84.50;;;11.48;50.19;97698.19;5033174;28;20045;-45
2023/01/12 08:47:29;;;;;;;5.63;1.40;;;8.50;84.80;;;11.53;50.52;97706.50;5032613;28;20054;-45
2023/01/12 08:49:59;;;;;;;8.00;1.57;;;8.50;84.90;;;11.55;50.19;97699.16;5032061;28;20056;-44
2023/01/12 08:52:28;;;;;;;6.03;1.50;;;8.50;85.20;;;11.58;50.56;97704.16;5032621;28;20511;-43
2023/01/12 08:54:55;;;;;;;3.83;1.73;;;8.50;85.10;;;11.61;50.39;97709.16;5032819;28;20048;-47
2023/01/12 08:57:23;;;;;;;5.03;1.53;;;8.50;85.10;;;11.63;50.12;97712.47;5032868;28;20064;-47
2023/01/12 08:59:51;;;;;;;5.57;1.50;;;8.50;85.10;;;11.66;50.30;97712.16;5032727;28;20042;-44
2023/01/12 09:02:18;;;;;;;3.83;1.43;;;8.60;85.10;;;11.65;50.10;97705.19;5033017;28;20053;-45
2023/01/12 09:04:46;;;;;;;7.33;1.90;;;8.60;84.90;;;11.57;50.45;97719.34;5032859;28;20492;-48
2023/01/12 09:07:15;;;;;;;6.10;1.20;;;8.60;85.00;;;11.67;50.56;97724.50;5030947;28;20057;-45
2023/01/12 09:09:43;;;;;;;11.23;3.70;;;8.60;85.20;;;11.68;50.18;97722.66;5023511;28;20059;-45
2023/01/12 09:12:10;;;;;;;9.50;2.90;;;8.60;84.70;;;11.69;50.44;97725.19;5024286;28;20370;-47
2023/01/12 09:14:38;;;;;;;5.93;2.80;;;8.60;85.40;;;11.71;50.11;97725.84;5039462;28;20102;-47
2023/01/12 09:17:06;;;;;;;3.33;1.80;;;8.60;85.10;;;11.73;50.78;97726.50;5026617;28;20056;-44
2023/01/12 09:19:34;;;;;;;7.10;1.80;;;8.70;85.30;;;11.61;50.45;97733.16;5025626;28;20045;-46
2023/01/12 09:22:01;;;;;;;4.93;1.23;;;8.60;85.10;;;11.71;50.69;97739.19;5026073;28;20049;-47
2023/01/12 09:24:29;;;;;;;7.90;2.23;;;8.70;85.70;;;11.80;50.39;97732.00;5025845;28;20053;-45
2023/01/12 09:26:56;;;;;;;4.17;1.73;;;8.70;85.50;;;11.85;50.33;97748.34;5026963;28;20041;-45
2023/01/12 09:29:24;;;;;;;3.43;1.43;;;8.70;85.20;;;11.89;50.45;97738.19;5026887;28;20037;-43
2023/01/12 09:31:51;;;;;;;7.50;1.93;;;8.70;84.70;;;11.84;50.44;97746.66;5026369;28;20049;-46
2023/01/12 09:34:19;;;;;;;5.47;1.93;;;8.70;84.90;;;11.91;50.30;97741.53;5023356;28;20045;-45
2023/01/12 09:36:47;;;;;;;4.90;1.40;;;8.80;85.30;;;11.98;50.32;97739.84;5026603;28;20045;-45
2023/01/12 09:39:16;;;;;;;4.43;1.50;;;8.90;85.10;;;11.92;50.58;97741.38;5023384;28;20072;-45
2023/01/12 09:47:55;;;;;;;3.43;2.20;;;8.90;84.50;;;11.93;50.00;97716.34;5022692;28;20052;-45
2023/01/12 09:50:45;;;;;;;3.30;1.13;;;8.80;84.30;;;11.97;50.25;97719.53;5025250;28;20052;-45
2023/01/12 09:53:39;;;;;;;4.40;1.10;;;8.90;84.50;;;12.00;50.17;97706.69;5021497;28;20041;-46
2023/01/12 09:56:07;;;;;;;5.90;1.10;;;8.90;84.20;;;12.08;50.21;97692.50;5023087;28;20061;-49
2023/01/12 09:59:07;;;;;;;5.90;1.53;;;9.00;84.20;;;12.03;49.88;97686.81;5025915;28;20519;-46
2023/01/12 10:01:36;;;;;;;2.33;1.40;;;9.00;83.40;;;12.08;49.84;97680.97;5008215;28;20050;-49
2023/01/12 10:04:05;;;;;;;2.03;1.00;;;9.00;83.90;;;12.11;50.23;97676.13;5024921;28;20056;-46
2023/01/12 10:06:34;;;;;;;6.63;1.97;;;9.00;83.90;;;12.15;49.70;97672.13;5024486;28;20049;-45
2023/01/12 10:09:12;;;;;;;5.93;2.17;;;9.10;84.00;;;12.18;49.88;97677.13;5024513;28;20049;-48
2023/01/12 10:12:07;;;;;;;4.67;2.07;;;9.10;82.10;;;12.15;49.83;97680.13;5019241;28;20049;-47
2023/01/12 10:14:56;;;;;;;5.60;1.63;;;9.10;82.40;;;12.20;49.75;97680.47;5025284;28;20049;-43
2023/01/12 10:18:01;;;;;;;3.17;1.37;;;9.10;82.10;;;12.24;49.89;97666.78;5025615;28;20054;-45
2023/01/12 10:20:40;;;;;;;4.97;1.90;;;9.20;82.00;;;12.32;49.51;97678.25;5025106;28;20041;-44
2023/01/12 10:23:08;;;;;;;3.30;1.33;;;9.20;81.50;;;12.34;49.40;97672.75;5025845;28;20064;-44
2023/01/12 10:25:49;;;;;;;9.40;2.30;;;9.30;81.80;;;12.34;49.26;97670.06;5025562;28;20049;-46
2023/01/12 10:28:23;;;;;;;4.27;1.57;;;9.30;81.80;;;12.34;49.33;97670.91;5023854;28;20052;-47
2023/01/12 10:30:52;;;;;;;2.07;0.93;;;9.30;80.90;;;12.33;49.31;97673.75;5024162;28;20041;-44
2023/01/12 10:33:26;;;;;;;1.87;1.30;;;9.30;81.90;;;12.39;49.33;97673.06;5025408;28;20034;-47
2023/01/12 10:36:13;;;;;;;4.17;1.30;;;9.30;81.00;;;12.37;49.36;97673.25;5025622;28;20045;-47
2023/01/12 10:38:58;;;;;;;2.97;1.80;;;9.40;79.30;;;12.39;49.06;97681.09;5024714;28;20072;-45
2023/01/12 10:41:28;;;;;;;3.37;1.33;;;9.40;79.40;;;12.44;48.97;97662.69;5023245;28;20049;-43
2023/01/12 10:43:55;;;;;;;4.90;1.47;;;9.40;79.60;;;12.47;48.71;97665.03;5023375;28;20397;-46
2023/01/12 10:46:26;;;;;;;2.37;1.23;;;9.40;79.60;;;12.53;48.50;97661.66;5025223;28;20045;-46
2023/01/12 10:49:16;;;;;;;4.13;1.30;;;9.50;79.00;;;12.58;48.61;97653.97;5021378;28;20045;-49
2023/01/12 10:51:52;;;;;;;3.33;1.50;;;9.50;79.30;;;12.65;48.27;97647.94;5025409;28;20045;-47
2023/01/12 10:54:33;;;;;;;3.77;1.73;;;9.60;78.40;;;12.63;48.54;97639.25;5039187;28;20342;-45
2023/01/12 10:57:02;;;;;;;4.87;1.40;;;9.60;77.30;;;12.65;48.07;97653.28;5008724;28;20042;-45
2023/01/12 10:59:37;;;;;;;3.07;1.27;;;9.60;77.80;;;12.65;48.23;97643.41;5024072;28;20041;-48
2023/01/12 11:02:05;;;;;;;2.97;0.90;;;9.60;76.80;;;12.69;47.63;97636.72;5024525;28;20041;-45
2023/01/12 11:04:49;;;;;;;3.47;1.13;;;9.60;77.80;;;12.68;48.02;97647.56;5025784;28;20524;-47
2023/01/12 11:07:27;;;;;;;4.05;1.25;;;9.60;77.60;;;12.75;48.04;97641.34;5024401;28;20057;-45
2023/01/12 11:10:24;;;;;;;3.53;1.37;;;9.70;76.60;;;12.68;48.00;97644.91;5024341;28;20364;-46
2023/01/12 11:13:04;;;;;;;8.77;1.30;;;9.70;77.50;;;12.70;47.68;97649.06;5025427;28;20409;-48
2023/01/12 11:15:37;;;;;;;3.27;1.07;;;9.70;76.20;;;12.66;47.79;97631.75;5024458;28;20049;-44